Time;durP1;ratioP1;P1;durP2;ratioP2;P2;SDS_P1;SDS_P2;PMS_P1;PMS_P2;Temp;Humidity;BMP_temperature;BMP_pressure;BME280_temperature;BME280_humidity;BME280_pressure;Samples;Min_cycle;Max_cycle;Signal;HPM_P1;HPM_P2
2021/03/18 00:02:41;;;;;;;;;;;2.20;99.90;;;;;;13183566;22;19989;-88
2021/03/18 00:07:43;;;;;;;;;;;0.90;99.90;;;;;;13181632;22;19953;-88
2021/03/18 00:12:45;;;;;;;;;;;0.80;99.90;;;;;;13156532;22;19923;-88
2021/03/18 00:17:47;;;;;;;;;;;1.80;99.90;;;;;;13182362;22;20250;-88
2021/03/18 00:22:49;;;;;;;;;;;0.90;99.90;;;;;;13183388;22;20216;-88
2021/03/18 00:27:50;;;;;;;;;;;0.90;99.90;;;;;;13181765;22;19918;-88
2021/03/18 00:32:52;;;;;;;;;;;1.10;99.90;;;;;;13183342;22;19986;-88
2021/03/18 00:37:54;;;;;;;;;;;0.80;99.90;;;;;;13180855;22;19930;-88
2021/03/18 00:42:56;;;;;;;;;;;0.70;99.90;;;;;;13182448;22;19957;-88
2021/03/18 00:47:59;;;;;;;;;;;0.70;99.90;;;;;;13183625;22;19985;-88
2021/03/18 00:53:00;;;;;;;;;;;0.60;99.90;;;;;;13182512;22;19967;-88
2021/03/18 00:58:02;;;;;;;;;;;0.50;99.90;;;;;;13182361;22;19918;-88
2021/03/18 01:03:04;;;;;;;;;;;0.50;99.90;;;;;;13182973;22;20236;-88
2021/03/18 01:08:05;;;;;;;;;;;0.40;99.90;;;;;;13184052;22;19985;-88
2021/03/18 01:13:07;;;;;;;;;;;0.40;99.90;;;;;;13183688;22;19985;-88
2021/03/18 01:18:08;;;;;;;;;;;0.40;99.90;;;;;;13182208;22;19992;-88
2021/03/18 01:23:10;;;;;;;;;;;1.10;99.90;;;;;;13181763;22;19918;-88
2021/03/18 01:28:12;;;;;;;;;;;0.20;99.90;;;;;;13185059;22;19924;-88
2021/03/18 01:33:25;;;;;;;;;;;0.30;99.90;;;;;;13185743;22;20349;-88
2021/03/18 01:38:30;;;;;;;;;;;0.50;99.90;;;;;;13185381;22;19925;-88
2021/03/18 01:43:32;;;;;;;;;;;0.50;99.90;;;;;;13185662;22;20001;-89
2021/03/18 01:48:33;;;;;;;;;;;0.60;99.90;;;;;;13186453;22;19918;-88
2021/03/18 01:53:35;;;;;;;;;;;1.60;99.90;;;;;;13187542;22;19933;-88
2021/03/18 01:58:36;;;;;;;;;;;2.70;99.90;;;;;;13187339;22;19986;-88
2021/03/18 02:03:38;;;;;;;;;;;1.00;99.90;;;;;;13185854;22;19918;-88
2021/03/18 02:08:40;;;;;;;;;;;0.40;99.90;;;;;;13159648;22;19918;-88
2021/03/18 02:13:41;;;;;;;;;;;0.30;99.90;;;;;;13184927;22;19918;-88
2021/03/18 02:18:47;;;;;;;;;;;0.30;99.90;;;;;;13184668;22;20295;-89
2021/03/18 02:24:07;;;;;;;;;;;0.30;99.90;;;;;;13186974;22;20000;-88
2021/03/18 02:29:11;;;;;;;;;;;0.30;99.90;;;;;;13186120;22;20597;-89
2021/03/18 02:34:33;;;;;;;;;;;0.30;99.90;;;;;;13183517;22;19989;-88
2021/03/18 02:39:42;;;;;;;;;;;0.30;99.90;;;;;;13183735;22;19993;-89
2021/03/18 02:44:44;;;;;;;;;;;0.50;99.90;;;;;;13186609;22;19918;-88
2021/03/18 02:49:46;;;;;;;;;;;1.50;99.90;;;;;;13185292;22;19985;-88
2021/03/18 02:54:51;;;;;;;;;;;2.30;99.90;;;;;;13158631;22;19940;-88
2021/03/18 02:59:53;;;;;;;;;;;0.60;99.90;;;;;;13184120;22;20339;-88
2021/03/18 03:04:56;;;;;;;;;;;0.60;99.90;;;;;;13185422;22;19993;-88
2021/03/18 03:09:59;;;;;;;;;;;0.60;99.90;;;;;;13186118;22;19925;-88
2021/03/18 03:15:00;;;;;;;;;;;0.60;99.90;;;;;;13184590;22;19985;-88
2021/03/18 03:20:03;;;;;;;;;;;0.60;99.90;;;;;;13184955;22;19922;-88
2021/03/18 03:25:06;;;;;;;;;;;0.60;99.90;;;;;;13185114;22;20015;-88
2021/03/18 03:30:08;;;;;;;;;;;0.50;99.90;;;;;;13185712;22;19949;-88
2021/03/18 03:35:10;;;;;;;;;;;0.50;99.90;;;;;;13169487;22;19918;-91
2021/03/18 03:40:13;;;;;;;;;;;0.50;99.90;;;;;;13184905;22;19953;-91
2021/03/18 03:45:15;;;;;;;;;;;0.50;99.90;;;;;;13183486;22;20331;-91
2021/03/18 03:50:19;;;;;;;;;;;0.40;99.90;;;;;;13183416;22;20362;-90
2021/03/18 03:55:25;;;;;;;;;;;0.30;99.90;;;;;;13184239;22;19919;-90
2021/03/18 04:00:29;;;;;;;;;;;0.30;99.90;;;;;;13183983;22;19950;-91
2021/03/18 04:05:32;;;;;;;;;;;2.30;99.90;;;;;;13158161;22;19918;-91
2021/03/18 04:10:33;;;;;;;;;;;0.20;99.90;;;;;;13183733;22;19918;-90
2021/03/18 04:15:35;;;;;;;;;;;0.20;99.90;;;;;;13182897;22;19934;-91
2021/03/18 04:20:37;;;;;;;;;;;0.20;99.90;;;;;;13183367;22;19965;-90
2021/03/18 04:25:40;;;;;;;;;;;2.00;99.90;;;;;;13182256;22;19989;-90
2021/03/18 04:30:42;;;;;;;;;;;0.30;99.90;;;;;;13181684;22;20002;-91
2021/03/18 04:35:43;;;;;;;;;;;0.30;99.90;;;;;;13156369;22;19968;-90
2021/03/18 04:40:45;;;;;;;;;;;0.30;99.90;;;;;;13156893;22;19997;-90
2021/03/18 04:45:47;;;;;;;;;;;0.20;99.90;;;;;;13157061;22;19990;-90
2021/03/18 04:50:49;;;;;;;;;;;0.30;99.90;;;;;;13181222;22;19948;-90
2021/03/18 04:55:50;;;;;;;;;;;1.70;99.90;;;;;;13154420;22;19928;-90
2021/03/18 05:00:51;;;;;;;;;;;0.30;99.90;;;;;;13154136;22;19918;-90
2021/03/18 05:05:55;;;;;;;;;;;1.40;99.90;;;;;;13181759;22;20316;-90
2021/03/18 05:10:56;;;;;;;;;;;0.30;99.90;;;;;;13182984;22;20359;-90
2021/03/18 05:15:58;;;;;;;;;;;0.30;99.90;;;;;;13182553;22;19957;-90
2021/03/18 05:21:01;;;;;;;;;;;0.30;99.90;;;;;;13156523;22;19964;-90
2021/03/18 05:26:02;;;;;;;;;;;0.30;99.90;;;;;;13184219;22;19941;-90
2021/03/18 05:31:04;;;;;;;;;;;0.40;99.90;;;;;;13155678;22;19918;-90
2021/03/18 05:36:06;;;;;;;;;;;2.30;99.90;;;;;;13181646;22;20247;-90
2021/03/18 05:41:07;;;;;;;;;;;0.40;99.90;;;;;;13156049;22;19918;-90
2021/03/18 05:46:08;;;;;;;;;;;0.50;99.90;;;;;;13182945;22;20004;-90
2021/03/18 05:51:13;;;;;;;;;;;1.90;99.90;;;;;;13155563;22;19922;-90
2021/03/18 05:56:18;;;;;;;;;;;0.60;99.90;;;;;;13182567;22;19971;-90
2021/03/18 06:01:20;;;;;;;;;;;0.70;99.90;;;;;;13181376;22;20711;-90
2021/03/18 06:06:22;;;;;;;;;;;2.10;99.90;;;;;;13156038;22;19918;-90
2021/03/18 06:11:23;;;;;;;;;;;0.70;99.90;;;;;;13182253;22;19942;-91
2021/03/18 06:16:27;;;;;;;;;;;2.30;99.90;;;;;;13186242;22;19918;-90
2021/03/18 06:21:41;;;;;;;;;;;0.80;99.90;;;;;;13186189;22;19925;-91
2021/03/18 06:26:42;;;;;;;;;;;1.00;99.90;;;;;;13159321;22;19934;-90
2021/03/18 06:31:43;;;;;;;;;;;1.00;99.90;;;;;;13186428;22;19992;-91
2021/03/18 06:36:45;;;;;;;;;;;1.20;99.90;;;;;;13159110;22;19950;-91
2021/03/18 06:41:50;;;;;;;;;;;1.30;99.90;;;;;;13158843;22;19960;-91
2021/03/18 06:46:52;;;;;;;;;;;1.50;99.90;;;;;;13186137;22;19939;-91
2021/03/18 06:52:02;;;;;;;;;;;1.60;99.90;;;;;;13184804;22;19928;-91
2021/03/18 06:57:06;;;;;;;;;;;1.70;99.90;;;;;;13184915;22;19918;-92
2021/03/18 07:02:11;;;;;;;;;;;1.90;99.90;;;;;;13184157;22;20402;-92
2021/03/18 07:07:13;;;;;;;;;;;3.50;99.90;;;;;;13185844;22;19968;-93
2021/03/18 07:12:15;;;;;;;;;;;3.00;99.90;;;;;;13159577;22;20208;-94
2021/03/18 07:17:18;;;;;;;;;;;4.20;99.90;;;;;;13185981;22;20388;-94
2021/03/18 07:22:20;;;;;;;;;;;2.30;99.90;;;;;;13185902;22;19922;-95
2021/03/18 07:27:22;;;;;;;;;;;2.60;99.90;;;;;;13186648;22;19946;-95
2021/03/18 07:32:23;;;;;;;;;;;4.60;99.90;;;;;;13159247;22;19940;-95
2021/03/18 07:37:25;;;;;;;;;;;4.40;99.90;;;;;;13185157;22;20277;-95
2021/03/18 07:42:29;;;;;;;;;;;3.10;99.90;;;;;;13187223;22;19964;-95
2021/03/18 07:47:31;;;;;;;;;;;3.20;99.90;;;;;;13161719;22;19937;-95
2021/03/18 07:52:34;;;;;;;;;;;3.30;99.90;;;;;;13159977;22;20335;-95
2021/03/18 07:57:39;;;;;;;;;;;3.30;99.90;;;;;;13185343;22;20339;-94
2021/03/18 08:02:41;;;;;;;;;;;3.40;99.90;;;;;;13184994;22;19919;-94
2021/03/18 08:07:44;;;;;;;;;;;3.60;99.90;;;;;;13158724;22;20254;-94
2021/03/18 08:12:46;;;;;;;;;;;3.60;99.90;;;;;;13185614;22;19941;-94
2021/03/18 08:17:48;;;;;;;;;;;3.70;99.90;;;;;;13184357;22;19941;-94
2021/03/18 08:22:50;;;;;;;;;;;5.80;99.90;;;;;;13184746;22;19928;-94
2021/03/18 08:27:51;;;;;;;;;;;4.50;99.90;;;;;;13158297;22;19950;-95
2021/03/18 08:32:52;;;;;;;;;;;3.80;99.90;;;;;;13158975;22;19918;-95
2021/03/18 08:38:12;;;;;;;;;;;5.20;99.90;;;;;;13158339;22;19949;-93
2021/03/18 08:43:13;;;;;;;;;;;3.80;99.90;;;;;;13186284;22;20000;-94
2021/03/18 08:48:16;;;;;;;;;;;4.00;99.90;;;;;;13158540;22;19934;-94
2021/03/18 08:53:25;;;;;;;;;;;4.20;99.90;;;;;;13184385;22;19949;-94
2021/03/18 08:58:27;;;;;;;;;;;4.30;99.90;;;;;;13185011;22;20037;-94
2021/03/18 09:03:28;;;;;;;;;;;4.50;99.90;;;;;;13183602;22;19945;-94
2021/03/18 09:08:30;;;;;;;;;;;4.70;99.90;;;;;;13157000;22;20060;-88
2021/03/18 09:13:34;;;;;;;;;;;6.10;99.90;;;;;;13182284;22;19919;-88
2021/03/18 09:18:36;;;;;;;;;;;5.10;99.90;;;;;;13179868;22;20600;-88
2021/03/18 09:23:42;;;;;;;;;;;6.80;99.90;;;;;;13152785;22;19941;-87
2021/03/18 09:28:46;;;;;;;;;;;6.20;99.90;;;;;;13179574;22;19964;-88
2021/03/18 09:33:47;;;;;;;;;;;6.50;99.90;;;;;;13169757;22;20001;-88
2021/03/18 09:38:55;;;;;;;;;;;5.80;99.90;;;;;;13154115;22;19922;-89
2021/03/18 09:44:01;;;;;;;;;;;5.00;99.90;;;;;;13153860;22;20242;-89
2021/03/18 09:49:03;;;;;;;;;;;5.00;99.90;;;;;;13156752;22;19945;-89
2021/03/18 09:54:09;;;;;;;;;;;6.10;99.90;;;;;;13158799;22;19919;-89
2021/03/18 09:59:13;;;;;;;;;;;6.40;99.90;;;;;;13157438;22;20593;-90
2021/03/18 10:04:16;;;;;;;;;;;5.80;99.90;;;;;;13131800;22;20347;-90
2021/03/18 10:09:23;;;;;;;;;;;7.20;99.90;;;;;;13157481;22;19919;-90
2021/03/18 10:14:38;;;;;;;;;;;5.80;99.90;;;;;;13157482;22;19918;-89
2021/03/18 10:19:50;;;;;;;;;;;5.80;99.90;;;;;;13157034;22;19918;-90
2021/03/18 10:25:04;;;;;;;;;;;7.60;99.90;;;;;;13157486;22;19985;-91
2021/03/18 10:30:08;;;;;;;;;;;6.20;99.90;;;;;;13158253;22;19924;-91
2021/03/18 10:35:11;;;;;;;;;;;6.30;99.90;;;;;;13157012;22;19989;-91
2021/03/18 10:40:14;;;;;;;;;;;6.70;99.90;;;;;;13157893;22;19922;-89
2021/03/18 10:45:17;;;;;;;;;;;5.60;99.90;;;;;;13182839;22;20165;-88
2021/03/18 10:50:22;;;;;;;;;;;6.70;99.90;;;;;;13155609;22;19918;-88
2021/03/18 10:55:25;;;;;;;;;;;7.60;99.90;;;;;;13155415;22;19957;-88
2021/03/18 11:00:29;;;;;;;;;;;6.90;99.90;;;;;;13154583;22;20343;-88
2021/03/18 11:05:40;;;;;;;;;;;6.80;99.90;;;;;;13156708;22;19929;-89
2021/03/18 11:10:47;;;;;;;;;;;6.60;99.90;;;;;;13155263;22;19926;-88
2021/03/18 11:15:50;;;;;;;;;;;6.60;99.90;;;;;;13183214;22;19925;-89
2021/03/18 11:20:53;;;;;;;;;;;7.00;99.90;;;;;;13155692;22;20001;-88
2021/03/18 11:25:56;;;;;;;;;;;8.10;99.90;;;;;;13155361;22;19918;-89
2021/03/18 11:30:58;;;;;;;;;;;7.90;99.90;;;;;;13129539;22;20385;-89
2021/03/18 11:36:02;;;;;;;;;;;8.40;99.90;;;;;;13155623;22;19929;-89
2021/03/18 11:41:03;;;;;;;;;;;8.00;99.90;;;;;;13155868;22;19918;-89
2021/03/18 11:46:05;;;;;;;;;;;7.50;99.90;;;;;;13131100;22;19918;-90
2021/03/18 11:51:06;;;;;;;;;;;8.40;99.90;;;;;;13158027;22;19948;-90
2021/03/18 11:56:08;;;;;;;;;;;7.40;99.90;;;;;;13157912;22;19918;-89
2021/03/18 12:01:09;;;;;;;;;;;9.10;99.90;;;;;;13130961;22;20212;-89
2021/03/18 12:06:11;;;;;;;;;;;8.00;99.90;;;;;;13156624;22;19922;-89
2021/03/18 12:11:13;;;;;;;;;;;8.50;99.90;;;;;;13130522;22;19918;-90
2021/03/18 12:16:14;;;;;;;;;;;7.20;99.90;;;;;;13157147;22;19925;-90
2021/03/18 12:21:15;;;;;;;;;;;7.10;99.90;;;;;;13130208;22;19942;-90
2021/03/18 12:26:17;;;;;;;;;;;7.00;99.90;;;;;;13156413;22;19989;-90
2021/03/18 12:31:18;;;;;;;;;;;7.90;99.90;;;;;;13131031;22;20011;-90
2021/03/18 12:36:19;;;;;;;;;;;7.10;99.90;;;;;;13155746;22;19938;-90
2021/03/18 12:41:21;;;;;;;;;;;7.00;99.90;;;;;;13130386;22;20339;-90
2021/03/18 12:46:22;;;;;;;;;;;7.20;99.90;;;;;;13156982;22;19918;-89
2021/03/18 12:51:23;;;;;;;;;;;8.10;99.90;;;;;;13155618;22;20281;-89
2021/03/18 12:56:25;;;;;;;;;;;7.40;99.90;;;;;;13129712;22;20243;-89
2021/03/18 13:01:26;;;;;;;;;;;7.60;99.90;;;;;;13183993;22;19925;-89
2021/03/18 13:06:28;;;;;;;;;;;7.70;99.90;;;;;;13155980;22;19990;-89
2021/03/18 13:11:29;;;;;;;;;;;7.90;99.90;;;;;;13183156;22;19918;-89
2021/03/18 13:16:31;;;;;;;;;;;8.60;99.90;;;;;;13130415;22;19949;-90
2021/03/18 13:21:33;;;;;;;;;;;8.80;99.90;;;;;;13155220;22;19919;-89
2021/03/18 13:26:35;;;;;;;;;;;8.40;99.90;;;;;;13130034;22;19933;-89
2021/03/18 13:31:36;;;;;;;;;;;8.10;99.90;;;;;;13156123;22;19941;-90
2021/03/18 13:36:37;;;;;;;;;;;8.00;99.90;;;;;;13155162;22;19997;-90
2021/03/18 13:41:39;;;;;;;;;;;8.30;99.90;;;;;;13155858;22;19965;-90
2021/03/18 13:46:40;;;;;;;;;;;8.40;99.90;;;;;;13129080;22;20294;-90
2021/03/18 13:51:41;;;;;;;;;;;9.50;99.90;;;;;;13128681;22;19922;-90
2021/03/18 13:56:43;;;;;;;;;;;8.30;99.90;;;;;;13128264;22;19926;-90
2021/03/18 14:01:44;;;;;;;;;;;8.60;99.90;;;;;;13155287;22;19989;-90
2021/03/18 14:06:46;;;;;;;;;;;8.30;99.90;;;;;;13183702;22;19919;-90
2021/03/18 14:11:47;;;;;;;;;;;8.30;99.90;;;;;;13130023;22;19972;-89
2021/03/18 14:16:48;;;;;;;;;;;8.20;99.90;;;;;;13129790;22;19918;-89
2021/03/18 14:21:50;;;;;;;;;;;8.10;99.90;;;;;;13129785;22;19927;-89
2021/03/18 14:26:55;;;;;;;;;;;8.90;99.90;;;;;;13155981;22;19918;-91
2021/03/18 14:31:57;;;;;;;;;;;9.20;99.90;;;;;;13130512;22;20002;-90
2021/03/18 14:36:58;;;;;;;;;;;9.30;99.90;;;;;;13133635;22;19918;-91
2021/03/18 14:42:00;;;;;;;;;;;9.00;99.90;;;;;;13133451;22;19964;-89
2021/03/18 14:47:01;;;;;;;;;;;9.50;99.90;;;;;;13133243;22;19937;-89
2021/03/18 14:52:03;;;;;;;;;;;8.90;99.90;;;;;;13132196;22;20212;-89
2021/03/18 14:57:05;;;;;;;;;;;9.40;99.90;;;;;;13158058;22;19918;-89
2021/03/18 15:02:26;;;;;;;;;;;9.40;99.90;;;;;;13141169;22;19926;-89
2021/03/18 15:07:28;;;;;;;;;;;9.60;99.90;;;;;;13160163;22;19987;-89
2021/03/18 15:12:29;;;;;;;;;;;10.00;99.90;;;;;;13186453;22;19918;-89
2021/03/18 15:17:31;;;;;;;;;;;9.10;99.90;;;;;;13160269;22;19918;-95
2021/03/18 15:22:32;;;;;;;;;;;8.90;99.90;;;;;;13160288;22;19997;-95
2021/03/18 15:27:34;;;;;;;;;;;8.50;99.90;;;;;;13134019;22;19918;-94
2021/03/18 15:32:37;;;;;;;;;;;8.40;99.90;;;;;;13159327;22;19918;-94
2021/03/18 15:37:39;;;;;;;;;;;8.80;99.90;;;;;;13133081;22;20298;-94
2021/03/18 15:42:42;;;;;;;;;;;8.10;99.90;;;;;;13159210;22;20331;-94
2021/03/18 15:47:43;;;;;;;;;;;7.60;99.90;;;;;;13159890;22;19938;-93
2021/03/18 15:52:46;;;;;;;;;;;7.40;99.90;;;;;;13160329;22;19918;-94
2021/03/18 15:57:47;;;;;;;;;;;7.10;99.90;;;;;;13134476;22;19930;-93
2021/03/18 16:02:49;;;;;;;;;;;7.30;99.90;;;;;;13159671;22;19927;-94
2021/03/18 16:07:54;;;;;;;;;;;7.40;99.90;;;;;;13134505;22;20358;-94
2021/03/18 16:12:56;;;;;;;;;;;8.10;99.90;;;;;;13158526;22;19918;-90
2021/03/18 16:17:58;;;;;;;;;;;7.20;99.90;;;;;;13155795;22;19918;-89
2021/03/18 16:23:02;;;;;;;;;;;7.10;99.90;;;;;;13156369;22;19962;-89
2021/03/18 16:28:03;;;;;;;;;;;7.20;99.90;;;;;;13156163;22;19949;-89
2021/03/18 16:33:06;;;;;;;;;;;7.40;99.90;;;;;;13130035;22;19998;-89
2021/03/18 16:38:09;;;;;;;;;;;7.30;99.90;;;;;;13116906;22;19918;-89
2021/03/18 16:43:30;;;;;;;;;;;7.30;99.90;;;;;;13118534;22;19923;-89
2021/03/18 16:48:32;;;;;;;;;;;7.60;99.90;;;;;;13129102;22;19922;-89
2021/03/18 16:53:33;;;;;;;;;;;7.20;99.90;;;;;;13156713;22;19991;-87
2021/03/18 16:58:36;;;;;;;;;;;7.00;99.90;;;;;;13181655;22;19918;-87
2021/03/18 17:03:37;;;;;;;;;;;7.10;99.90;;;;;;13129464;22;19926;-87
2021/03/18 17:08:40;;;;;;;;;;;7.10;99.90;;;;;;13183297;22;19942;-87
2021/03/18 17:13:42;;;;;;;;;;;7.60;99.90;;;;;;13130122;22;19926;-87
2021/03/18 17:18:44;;;;;;;;;;;8.30;99.90;;;;;;13130169;22;20334;-86
2021/03/18 17:23:45;;;;;;;;;;;6.90;99.90;;;;;;13154329;22;19938;-87
2021/03/18 17:28:47;;;;;;;;;;;6.80;99.90;;;;;;13154896;22;19918;-87
2021/03/18 17:33:50;;;;;;;;;;;8.10;99.90;;;;;;13154393;22;20391;-87
2021/03/18 17:38:51;;;;;;;;;;;6.70;99.90;;;;;;13155337;22;19964;-87
2021/03/18 17:43:52;;;;;;;;;;;6.70;99.90;;;;;;13128864;22;20405;-87
2021/03/18 17:48:54;;;;;;;;;;;6.60;99.90;;;;;;13182395;22;19942;-86
2021/03/18 17:53:55;;;;;;;;;;;6.60;99.90;;;;;;13153276;22;19922;-87
2021/03/18 17:58:56;;;;;;;;;;;6.50;99.90;;;;;;13180518;22;19922;-87
2021/03/18 18:03:58;;;;;;;;;;;8.00;99.90;;;;;;13180871;22;20346;-87
2021/03/18 18:09:00;;;;;;;;;;;6.40;99.90;;;;;;13183831;22;19918;-87
2021/03/18 18:14:01;;;;;;;;;;;6.40;99.90;;;;;;13185312;22;19986;-87
2021/03/18 18:19:02;;;;;;;;;;;6.40;99.90;;;;;;13159273;22;19950;-87
2021/03/18 18:24:04;;;;;;;;;;;7.60;99.90;;;;;;13131689;22;19957;-86
2021/03/18 18:29:05;;;;;;;;;;;6.20;99.90;;;;;;13152936;22;19988;-87
2021/03/18 18:34:07;;;;;;;;;;;6.20;99.90;;;;;;13128792;22;20247;-87
2021/03/18 18:39:13;;;;;;;;;;;7.60;99.90;;;;;;13157111;22;19989;-86
2021/03/18 18:44:14;;;;;;;;;;;6.10;99.90;;;;;;13156096;22;20369;-86
2021/03/18 18:49:16;;;;;;;;;;;6.10;99.90;;;;;;13166688;22;19922;-86
2021/03/18 18:54:17;;;;;;;;;;;6.10;99.90;;;;;;13155333;22;20001;-86
2021/03/18 18:59:18;;;;;;;;;;;6.00;99.90;;;;;;13157407;22;19918;-86
2021/03/18 19:04:20;;;;;;;;;;;6.00;99.90;;;;;;13181603;22;19958;-86
2021/03/18 19:09:21;;;;;;;;;;;7.40;99.90;;;;;;13156852;22;20056;-86
2021/03/18 19:14:22;;;;;;;;;;;5.90;99.90;;;;;;13158260;22;19990;-87
2021/03/18 19:19:24;;;;;;;;;;;6.10;99.90;;;;;;13184187;22;19926;-86
2021/03/18 19:24:25;;;;;;;;;;;5.80;99.90;;;;;;13129354;22;19959;-86
2021/03/18 19:29:27;;;;;;;;;;;5.70;99.90;;;;;;13156559;22;20685;-86
2021/03/18 19:34:28;;;;;;;;;;;6.30;99.90;;;;;;13157714;22;19998;-87
2021/03/18 19:39:31;;;;;;;;;;;5.70;99.90;;;;;;13127290;22;19930;-87
2021/03/18 19:44:33;;;;;;;;;;;5.60;99.90;;;;;;13154875;22;19918;-87
2021/03/18 19:49:37;;;;;;;;;;;5.60;99.90;;;;;;13156285;22;19921;-87
2021/03/18 19:54:39;;;;;;;;;;;5.90;99.90;;;;;;13182596;22;19945;-87
2021/03/18 19:59:40;;;;;;;;;;;5.90;99.90;;;;;;13150120;22;19949;-87
2021/03/18 20:04:42;;;;;;;;;;;5.50;99.90;;;;;;13182284;22;20323;-86
2021/03/18 20:09:43;;;;;;;;;;;5.50;99.90;;;;;;13182282;22;19946;-87
2021/03/18 20:14:45;;;;;;;;;;;5.50;99.90;;;;;;13128855;22;19942;-86
2021/03/18 20:20:12;;;;;;;;;;;5.40;99.90;;;;;;13133469;22;19954;-86
2021/03/18 20:25:14;;;;;;;;;;;5.40;99.90;;;;;;13181778;22;20238;-87
2021/03/18 20:30:20;;;;;;;;;;;5.30;99.90;;;;;;13184077;22;19922;-86
2021/03/18 20:35:21;;;;;;;;;;;5.30;99.90;;;;;;13182696;22;20346;-86
2021/03/18 20:40:23;;;;;;;;;;;5.20;99.90;;;;;;13184247;22;19968;-87
2021/03/18 20:45:29;;;;;;;;;;;5.20;99.90;;;;;;13130793;22;19919;-86
2021/03/18 20:50:31;;;;;;;;;;;5.10;99.90;;;;;;13155991;22;19954;-86
2021/03/18 20:55:34;;;;;;;;;;;5.20;99.90;;;;;;13156289;22;19945;-87
2021/03/18 21:00:36;;;;;;;;;;;4.80;99.90;;;;;;13154337;22;20376;-86
2021/03/18 21:05:41;;;;;;;;;;;4.90;99.90;;;;;;13183616;22;19929;-87
2021/03/18 21:10:43;;;;;;;;;;;5.20;99.90;;;;;;13183087;22;19943;-86
2021/03/18 21:15:45;;;;;;;;;;;4.80;99.90;;;;;;13156084;22;19984;-86
2021/03/18 21:20:47;;;;;;;;;;;4.90;99.90;;;;;;13155554;22;20331;-86
2021/03/18 21:25:50;;;;;;;;;;;4.80;99.90;;;;;;13182646;22;19963;-86
2021/03/18 21:30:52;;;;;;;;;;;4.80;99.90;;;;;;13155053;22;19961;-86
2021/03/18 21:35:53;;;;;;;;;;;4.70;99.90;;;;;;13182968;22;19942;-86
2021/03/18 21:40:55;;;;;;;;;;;4.60;99.90;;;;;;13155784;22;19918;-86
2021/03/18 21:45:56;;;;;;;;;;;4.50;99.90;;;;;;13158907;22;19942;-86
2021/03/18 21:51:13;;;;;;;;;;;4.40;99.90;;;;;;13140824;22;19993;-86
2021/03/18 21:56:15;;;;;;;;;;;4.40;99.90;;;;;;13157079;22;19918;-85
2021/03/18 22:01:16;;;;;;;;;;;5.70;99.90;;;;;;13186697;22;19958;-86
2021/03/18 22:06:18;;;;;;;;;;;4.30;99.90;;;;;;13186610;22;20254;-86
2021/03/18 22:11:19;;;;;;;;;;;4.30;99.90;;;;;;13159698;22;19918;-86
2021/03/18 22:16:21;;;;;;;;;;;4.30;99.90;;;;;;13158870;22;19929;-86
2021/03/18 22:21:43;;;;;;;;;;;5.60;99.90;;;;;;13163250;22;19922;-86
2021/03/18 22:26:44;;;;;;;;;;;4.30;99.90;;;;;;13159121;22;19919;-86
2021/03/18 22:31:46;;;;;;;;;;;4.20;99.90;;;;;;13186528;22;19929;-86
2021/03/18 22:36:47;;;;;;;;;;;4.20;99.90;;;;;;13184405;22;20335;-86
2021/03/18 22:41:48;;;;;;;;;;;4.10;99.90;;;;;;13185897;22;19954;-85
2021/03/18 22:46:50;;;;;;;;;;;4.00;99.90;;;;;;13158525;22;19989;-86
